KTSP/TSP METAR and TAF weather

Enter ICAO airport designator
Station Type Date Time Source
KTSP METAR 2018/12/13 22:15 UTC NOAA

KTSP 132215Z AUTO 13014G22KT 10SM CLR 12/M10 A3029 RMK AO2


Station Type Date Time Source
KTSP Decoded METAR 2018/12/13 22:15 UTC NOAA

Station name not available
Dec 13, 2018 - 05:15 PM EST / 2018.12.13 2215 UTC
Wind: from the SE (130 degrees) at 16 MPH (14 KT) gusting to 25 MPH (22 KT):0
Visibility: 10 mile(s):0
Sky conditions: clear
Temperature: 53 F (12 C)
Dew Point: 14 F (-10 C)
Relative Humidity: 20%
Pressure (altimeter): 30.29 in. Hg (1025 hPa)
ob: KTSP 132215Z AUTO 13014G22KT 10SM CLR 12/M10 A3029 RMK AO2
cycle: 22

Station Type Date Time Source
KTSP TAF UTC NOAA

Error!


Example: see airport list